sensor_id;sensor_type;location;lat;lon;timestamp;pressure;altitude;pressure_sealevel;temperature;humidity
8286;BME280;4181;43.416;24.598;2023-05-12T00:00:39;100461.97;;;11.52;100.00
8286;BME280;4181;43.416;24.598;2023-05-12T00:03:05;100461.88;;;11.46;100.00
8286;BME280;4181;43.416;24.598;2023-05-12T00:05:31;100461.88;;;11.46;100.00
8286;BME280;4181;43.416;24.598;2023-05-12T00:07:57;100472.91;;;11.52;100.00
8286;BME280;4181;43.416;24.598;2023-05-12T00:10:22;100461.72;;;11.36;100.00
8286;BME280;4181;43.416;24.598;2023-05-12T00:12:48;100462.03;;;11.23;100.00
8286;BME280;4181;43.416;24.598;2023-05-12T00:15:14;100459.00;;;11.36;100.00
8286;BME280;4181;43.416;24.598;2023-05-12T00:17:39;100466.09;;;11.37;100.00
8286;BME280;4181;43.416;24.598;2023-05-12T00:20:05;100474.13;;;11.44;100.00
8286;BME280;4181;43.416;24.598;2023-05-12T00:22:31;100474.88;;;11.39;100.00
8286;BME280;4181;43.416;24.598;2023-05-12T00:24:56;100464.69;;;11.35;100.00
8286;BME280;4181;43.416;24.598;2023-05-12T00:27:22;100468.91;;;11.42;100.00
8286;BME280;4181;43.416;24.598;2023-05-12T00:29:47;100472.81;;;11.46;100.00
8286;BME280;4181;43.416;24.598;2023-05-12T00:32:13;100463.44;;;11.42;100.00
8286;BME280;4181;43.416;24.598;2023-05-12T00:34:38;100454.00;;;11.33;100.00
8286;BME280;4181;43.416;24.598;2023-05-12T00:37:04;100465.00;;;11.38;100.00
8286;BME280;4181;43.416;24.598;2023-05-12T00:39:30;100447.97;;;11.31;100.00
8286;BME280;4181;43.416;24.598;2023-05-12T00:41:57;100464.19;;;11.38;100.00
8286;BME280;4181;43.416;24.598;2023-05-12T00:44:23;100460.63;;;11.37;100.00
8286;BME280;4181;43.416;24.598;2023-05-12T00:46:49;100468.41;;;11.45;100.00
8286;BME280;4181;43.416;24.598;2023-05-12T00:49:14;100465.75;;;11.34;100.00
8286;BME280;4181;43.416;24.598;2023-05-12T00:51:41;100483.31;;;11.38;100.00
8286;BME280;4181;43.416;24.598;2023-05-12T00:54:07;100464.94;;;11.33;100.00
8286;BME280;4181;43.416;24.598;2023-05-12T00:56:33;100471.91;;;11.41;100.00
8286;BME280;4181;43.416;24.598;2023-05-12T00:59:04;100474.28;;;11.37;100.00
8286;BME280;4181;43.416;24.598;2023-05-12T01:01:31;100473.03;;;11.45;100.00
8286;BME280;4181;43.416;24.598;2023-05-12T01:03:56;100484.22;;;11.43;100.00
8286;BME280;4181;43.416;24.598;2023-05-12T01:06:44;100481.00;;;11.46;100.00
8286;BME280;4181;43.416;24.598;2023-05-12T01:09:13;100481.66;;;11.37;100.00
8286;BME280;4181;43.416;24.598;2023-05-12T01:11:39;100476.69;;;11.34;100.00
8286;BME280;4181;43.416;24.598;2023-05-12T01:14:04;100483.72;;;11.30;100.00
8286;BME280;4181;43.416;24.598;2023-05-12T01:16:44;100484.81;;;11.29;100.00
8286;BME280;4181;43.416;24.598;2023-05-12T01:19:23;100477.84;;;11.21;100.00
8286;BME280;4181;43.416;24.598;2023-05-12T01:21:55;100483.00;;;11.34;100.00
8286;BME280;4181;43.416;24.598;2023-05-12T01:24:23;100475.22;;;11.26;100.00
8286;BME280;4181;43.416;24.598;2023-05-12T01:26:51;100475.13;;;11.21;100.00
8286;BME280;4181;43.416;24.598;2023-05-12T01:29:17;100474.53;;;11.19;100.00
8286;BME280;4181;43.416;24.598;2023-05-12T01:31:42;100488.44;;;11.18;100.00
8286;BME280;4181;43.416;24.598;2023-05-12T01:34:14;100489.50;;;11.17;100.00
8286;BME280;4181;43.416;24.598;2023-05-12T01:36:40;100478.81;;;11.15;100.00
8286;BME280;4181;43.416;24.598;2023-05-12T01:39:05;100488.69;;;11.16;100.00
8286;BME280;4181;43.416;24.598;2023-05-12T01:41:30;100483.94;;;11.12;100.00
8286;BME280;4181;43.416;24.598;2023-05-12T01:43:56;100481.56;;;11.15;100.00
8286;BME280;4181;43.416;24.598;2023-05-12T01:46:21;100470.63;;;11.15;100.00
8286;BME280;4181;43.416;24.598;2023-05-12T01:48:46;100490.59;;;11.16;100.00
8286;BME280;4181;43.416;24.598;2023-05-12T01:51:12;100480.63;;;11.10;100.00
8286;BME280;4181;43.416;24.598;2023-05-12T01:53:37;100468.81;;;11.04;100.00
8286;BME280;4181;43.416;24.598;2023-05-12T01:56:03;100491.09;;;11.13;100.00
8286;BME280;4181;43.416;24.598;2023-05-12T01:58:28;100481.88;;;11.02;100.00
8286;BME280;4181;43.416;24.598;2023-05-12T02:00:54;100484.41;;;10.92;100.00
8286;BME280;4181;43.416;24.598;2023-05-12T02:03:19;100486.91;;;10.94;100.00
8286;BME280;4181;43.416;24.598;2023-05-12T02:05:45;100475.31;;;11.03;100.00
8286;BME280;4181;43.416;24.598;2023-05-12T02:08:11;100484.94;;;11.06;100.00
8286;BME280;4181;43.416;24.598;2023-05-12T02:10:36;100481.28;;;11.00;100.00
8286;BME280;4181;43.416;24.598;2023-05-12T02:13:01;100486.91;;;10.94;100.00
8286;BME280;4181;43.416;24.598;2023-05-12T02:15:27;100480.22;;;11.01;100.00
8286;BME280;4181;43.416;24.598;2023-05-12T02:17:52;100483.94;;;11.12;100.00
8286;BME280;4181;43.416;24.598;2023-05-12T02:20:19;100475.06;;;11.05;100.00
8286;BME280;4181;43.416;24.598;2023-05-12T02:22:44;100477.63;;;10.95;100.00
8286;BME280;4181;43.416;24.598;2023-05-12T02:25:10;100478.88;;;10.87;100.00
8286;BME280;4181;43.416;24.598;2023-05-12T02:27:35;100482.69;;;10.86;100.00
8286;BME280;4181;43.416;24.598;2023-05-12T02:30:01;100492.06;;;10.79;100.00
8286;BME280;4181;43.416;24.598;2023-05-12T02:32:26;100490.19;;;10.79;100.00
8286;BME280;4181;43.416;24.598;2023-05-12T02:34:55;100483.88;;;10.79;100.00
8286;BME280;4181;43.416;24.598;2023-05-12T02:37:20;100492.50;;;10.87;100.00
8286;BME280;4181;43.416;24.598;2023-05-12T02:39:46;100497.47;;;10.90;100.00
8286;BME280;4181;43.416;24.598;2023-05-12T02:42:11;100505.66;;;10.90;100.00
8286;BME280;4181;43.416;24.598;2023-05-12T02:44:37;100499.81;;;10.98;100.00
8286;BME280;4181;43.416;24.598;2023-05-12T02:47:02;100496.34;;;11.03;100.00
8286;BME280;4181;43.416;24.598;2023-05-12T02:49:28;100500.69;;;10.87;100.00
8286;BME280;4181;43.416;24.598;2023-05-12T02:51:54;100506.84;;;10.94;100.00
8286;BME280;4181;43.416;24.598;2023-05-12T02:54:19;100503.13;;;11.00;100.00
8286;BME280;4181;43.416;24.598;2023-05-12T02:56:45;100504.72;;;10.96;100.00
8286;BME280;4181;43.416;24.598;2023-05-12T02:59:10;100510.94;;;10.80;100.00
8286;BME280;4181;43.416;24.598;2023-05-12T03:01:36;100519.47;;;10.84;100.00
8286;BME280;4181;43.416;24.598;2023-05-12T03:04:01;100516.78;;;10.72;100.00
8286;BME280;4181;43.416;24.598;2023-05-12T03:06:28;100516.88;;;10.77;100.00
8286;BME280;4181;43.416;24.598;2023-05-12T03:08:54;100515.34;;;10.81;100.00
8286;BME280;4181;43.416;24.598;2023-05-12T03:11:22;100511.88;;;10.86;100.00
8286;BME280;4181;43.416;24.598;2023-05-12T03:13:48;100521.44;;;10.88;100.00
8286;BME280;4181;43.416;24.598;2023-05-12T03:16:13;100517.47;;;10.79;100.00
8286;BME280;4181;43.416;24.598;2023-05-12T03:18:41;100525.75;;;10.84;100.00
8286;BME280;4181;43.416;24.598;2023-05-12T03:21:06;100522.53;;;10.87;100.00
8286;BME280;4181;43.416;24.598;2023-05-12T03:23:32;100520.16;;;10.91;100.00
8286;BME280;4181;43.416;24.598;2023-05-12T03:25:57;100523.88;;;10.73;100.00
8286;BME280;4181;43.416;24.598;2023-05-12T03:28:23;100533.16;;;10.72;100.00
8286;BME280;4181;43.416;24.598;2023-05-12T03:30:49;100534.84;;;10.62;100.00
8286;BME280;4181;43.416;24.598;2023-05-12T03:33:14;100536.97;;;10.71;100.00
8286;BME280;4181;43.416;24.598;2023-05-12T03:35:39;100534.84;;;10.62;100.00
8286;BME280;4181;43.416;24.598;2023-05-12T03:38:05;100539.38;;;10.56;100.00
8286;BME280;4181;43.416;24.598;2023-05-12T03:40:30;100543.97;;;10.67;100.00
8286;BME280;4181;43.416;24.598;2023-05-12T03:42:56;100546.69;;;10.67;100.00
8286;BME280;4181;43.416;24.598;2023-05-12T03:45:21;100540.88;;;10.64;100.00
8286;BME280;4181;43.416;24.598;2023-05-12T03:47:47;100548.69;;;10.72;100.00
8286;BME280;4181;43.416;24.598;2023-05-12T03:50:12;100546.56;;;10.74;100.00
8286;BME280;4181;43.416;24.598;2023-05-12T03:52:37;100551.66;;;10.70;100.00
8286;BME280;4181;43.416;24.598;2023-05-12T03:55:05;100561.75;;;10.81;100.00
8286;BME280;4181;43.416;24.598;2023-05-12T03:57:31;100563.03;;;10.79;100.00
8286;BME280;4181;43.416;24.598;2023-05-12T03:59:56;100563.28;;;10.77;100.00
8286;BME280;4181;43.416;24.598;2023-05-12T04:02:22;100563.06;;;10.67;100.00
8286;BME280;4181;43.416;24.598;2023-05-12T04:04:47;100561.03;;;10.74;100.00
8286;BME280;4181;43.416;24.598;2023-05-12T04:07:13;100563.78;;;10.74;100.00
8286;BME280;4181;43.416;24.598;2023-05-12T04:09:39;100578.91;;;10.82;100.00
8286;BME280;4181;43.416;24.598;2023-05-12T04:12:04;100566.34;;;10.81;100.00
8286;BME280;4181;43.416;24.598;2023-05-12T04:14:30;100577.41;;;10.74;100.00
8286;BME280;4181;43.416;24.598;2023-05-12T04:16:55;100578.00;;;10.76;100.00
8286;BME280;4181;43.416;24.598;2023-05-12T04:19:22;100578.13;;;10.81;100.00
8286;BME280;4181;43.416;24.598;2023-05-12T04:21:48;100570.59;;;10.88;100.00
8286;BME280;4181;43.416;24.598;2023-05-12T04:24:13;100578.34;;;10.80;100.00
8286;BME280;4181;43.416;24.598;2023-05-12T04:26:39;100585.13;;;10.77;100.00
8286;BME280;4181;43.416;24.598;2023-05-12T04:29:04;100589.97;;;10.75;100.00
8286;BME280;4181;43.416;24.598;2023-05-12T04:31:30;100578.69;;;10.83;100.00
8286;BME280;4181;43.416;24.598;2023-05-12T04:33:55;100589.50;;;10.78;100.00
8286;BME280;4181;43.416;24.598;2023-05-12T04:36:21;100585.00;;;10.72;100.00
8286;BME280;4181;43.416;24.598;2023-05-12T04:38:47;100586.91;;;10.72;100.00
8286;BME280;4181;43.416;24.598;2023-05-12T04:41:12;100589.38;;;10.73;100.00
8286;BME280;4181;43.416;24.598;2023-05-12T04:43:38;100586.53;;;10.68;100.00
8286;BME280;4181;43.416;24.598;2023-05-12T04:46:03;100590.84;;;10.64;100.00
8286;BME280;4181;43.416;24.598;2023-05-12T04:48:29;100601.28;;;10.67;100.00
8286;BME280;4181;43.416;24.598;2023-05-12T04:50:57;100592.13;;;10.73;100.00
8286;BME280;4181;43.416;24.598;2023-05-12T04:53:23;100580.75;;;10.76;100.00
8286;BME280;4181;43.416;24.598;2023-05-12T04:55:49;100595.91;;;10.84;100.00
8286;BME280;4181;43.416;24.598;2023-05-12T04:58:15;100590.16;;;10.97;100.00
8286;BME280;4181;43.416;24.598;2023-05-12T05:00:44;100584.28;;;11.05;100.00
8286;BME280;4181;43.416;24.598;2023-05-12T05:03:09;100576.44;;;11.08;100.00
8286;BME280;4181;43.416;24.598;2023-05-12T05:05:35;100595.31;;;11.10;100.00
8286;BME280;4181;43.416;24.598;2023-05-12T05:08:00;100588.00;;;10.99;100.00
8286;BME280;4181;43.416;24.598;2023-05-12T05:10:25;100593.31;;;11.05;100.00
8286;BME280;4181;43.416;24.598;2023-05-12T05:12:51;100588.56;;;11.12;100.00
8286;BME280;4181;43.416;24.598;2023-05-12T05:15:16;100593.66;;;11.09;100.00
8286;BME280;4181;43.416;24.598;2023-05-12T05:17:42;100599.13;;;11.09;100.00
8286;BME280;4181;43.416;24.598;2023-05-12T05:20:08;100594.13;;;11.17;100.00
8286;BME280;4181;43.416;24.598;2023-05-12T05:22:33;100587.81;;;11.17;100.00
8286;BME280;4181;43.416;24.598;2023-05-12T05:24:59;100588.75;;;11.22;100.00
8286;BME280;4181;43.416;24.598;2023-05-12T05:27:24;100584.31;;;11.33;100.00
8286;BME280;4181;43.416;24.598;2023-05-12T05:29:50;100590.78;;;11.43;100.00
8286;BME280;4181;43.416;24.598;2023-05-12T05:32:16;100590.50;;;11.57;100.00
8286;BME280;4181;43.416;24.598;2023-05-12T05:34:42;100593.06;;;11.63;100.00
8286;BME280;4181;43.416;24.598;2023-05-12T05:37:07;100594.94;;;11.63;100.00
8286;BME280;4181;43.416;24.598;2023-05-12T05:39:33;100596.38;;;11.65;100.00
8286;BME280;4181;43.416;24.598;2023-05-12T05:41:58;100592.84;;;11.65;100.00
8286;BME280;4181;43.416;24.598;2023-05-12T05:44:24;100606.50;;;11.65;100.00
8286;BME280;4181;43.416;24.598;2023-05-12T05:46:50;100605.53;;;11.59;100.00
8286;BME280;4181;43.416;24.598;2023-05-12T05:49:15;100603.78;;;11.65;100.00
8286;BME280;4181;43.416;24.598;2023-05-12T05:51:41;100599.13;;;11.82;100.00
8286;BME280;4181;43.416;24.598;2023-05-12T05:54:06;100590.69;;;11.83;100.00
8286;BME280;4181;43.416;24.598;2023-05-12T05:56:32;100599.78;;;11.89;100.00
8286;BME280;4181;43.416;24.598;2023-05-12T05:59:00;100605.25;;;11.89;100.00
8286;BME280;4181;43.416;24.598;2023-05-12T06:01:27;100617.78;;;11.85;100.00
8286;BME280;4181;43.416;24.598;2023-05-12T06:03:53;100617.03;;;11.73;100.00
8286;BME280;4181;43.416;24.598;2023-05-12T06:06:18;100619.69;;;11.68;100.00
8286;BME280;4181;43.416;24.598;2023-05-12T06:08:44;100631.09;;;11.65;100.00
8286;BME280;4181;43.416;24.598;2023-05-12T06:11:09;100629.91;;;11.61;100.00
8286;BME280;4181;43.416;24.598;2023-05-12T06:13:36;100624.81;;;11.64;100.00
8286;BME280;4181;43.416;24.598;2023-05-12T06:16:01;100621.50;;;11.79;100.00
8286;BME280;4181;43.416;24.598;2023-05-12T06:18:27;100613.38;;;11.84;100.00
8286;BME280;4181;43.416;24.598;2023-05-12T06:20:52;100616.69;;;11.86;100.00
8286;BME280;4181;43.416;24.598;2023-05-12T06:23:18;100622.00;;;11.76;100.00
8286;BME280;4181;43.416;24.598;2023-05-12T06:25:43;100618.34;;;11.87;100.00
8286;BME280;4181;43.416;24.598;2023-05-12T06:28:08;100625.66;;;11.98;100.00
8286;BME280;4181;43.416;24.598;2023-05-12T06:30:34;100618.59;;;12.02;100.00
8286;BME280;4181;43.416;24.598;2023-05-12T06:32:59;100620.19;;;11.98;100.00
8286;BME280;4181;43.416;24.598;2023-05-12T06:35:25;100618.03;;;12.16;100.00
8286;BME280;4181;43.416;24.598;2023-05-12T06:37:50;100633.28;;;12.12;100.00
8286;BME280;4181;43.416;24.598;2023-05-12T06:40:16;100622.75;;;12.21;100.00
8286;BME280;4181;43.416;24.598;2023-05-12T06:42:42;100629.53;;;12.35;100.00
8286;BME280;4181;43.416;24.598;2023-05-12T06:45:08;100626.44;;;12.48;100.00
8286;BME280;4181;43.416;24.598;2023-05-12T06:47:35;100623.22;;;12.72;100.00
8286;BME280;4181;43.416;24.598;2023-05-12T06:50:00;100618.28;;;12.91;100.00
8286;BME280;4181;43.416;24.598;2023-05-12T06:52:26;100613.97;;;13.17;100.00
8286;BME280;4181;43.416;24.598;2023-05-12T06:54:51;100629.78;;;13.10;100.00
8286;BME280;4181;43.416;24.598;2023-05-12T06:57:17;100620.56;;;12.99;100.00
8286;BME280;4181;43.416;24.598;2023-05-12T06:59:42;100636.75;;;13.01;100.00
8286;BME280;4181;43.416;24.598;2023-05-12T07:02:08;100646.56;;;12.97;100.00
8286;BME280;4181;43.416;24.598;2023-05-12T07:04:33;100632.88;;;12.97;100.00
8286;BME280;4181;43.416;24.598;2023-05-12T07:07:00;100627.34;;;12.92;100.00
8286;BME280;4181;43.416;24.598;2023-05-12T07:09:25;100603.19;;;13.10;100.00
8286;BME280;4181;43.416;24.598;2023-05-12T07:11:51;100615.63;;;13.18;100.00
8286;BME280;4181;43.416;24.598;2023-05-12T07:14:16;100601.66;;;13.19;100.00
8286;BME280;4181;43.416;24.598;2023-05-12T07:16:42;100611.78;;;13.19;100.00
8286;BME280;4181;43.416;24.598;2023-05-12T07:19:07;100629.16;;;13.29;100.00
8286;BME280;4181;43.416;24.598;2023-05-12T07:21:34;100607.56;;;13.33;100.00
8286;BME280;4181;43.416;24.598;2023-05-12T07:23:59;100607.03;;;13.36;100.00
8286;BME280;4181;43.416;24.598;2023-05-12T07:26:25;100612.78;;;13.34;100.00
8286;BME280;4181;43.416;24.598;2023-05-12T07:28:52;100617.16;;;13.35;100.00
8286;BME280;4181;43.416;24.598;2023-05-12T07:31:18;100617.22;;;13.40;100.00
8286;BME280;4181;43.416;24.598;2023-05-12T07:33:43;100618.16;;;13.77;100.00
8286;BME280;4181;43.416;24.598;2023-05-12T07:36:09;100605.09;;;13.89;100.00
8286;BME280;4181;43.416;24.598;2023-05-12T07:38:34;100597.47;;;13.96;100.00
8286;BME280;4181;43.416;24.598;2023-05-12T07:41:00;100601.19;;;14.17;100.00
8286;BME280;4181;43.416;24.598;2023-05-12T07:43:25;100585.47;;;14.39;100.00
8286;BME280;4181;43.416;24.598;2023-05-12T07:45:51;100598.41;;;14.49;100.00
8286;BME280;4181;43.416;24.598;2023-05-12T07:48:16;100605.25;;;14.41;100.00
8286;BME280;4181;43.416;24.598;2023-05-12T07:50:42;100612.56;;;14.31;100.00
8286;BME280;4181;43.416;24.598;2023-05-12T07:53:07;100619.91;;;14.20;100.00
8286;BME280;4181;43.416;24.598;2023-05-12T07:55:33;100599.44;;;14.38;100.00
8286;BME280;4181;43.416;24.598;2023-05-12T07:57:58;100604.78;;;14.54;100.00
8286;BME280;4181;43.416;24.598;2023-05-12T08:00:24;100614.88;;;14.49;100.00
8286;BME280;4181;43.416;24.598;2023-05-12T08:02:50;100620.34;;;14.44;100.00
8286;BME280;4181;43.416;24.598;2023-05-12T08:05:15;100619.25;;;14.40;100.00
8286;BME280;4181;43.416;24.598;2023-05-12T08:07:41;100616.53;;;14.45;100.00
8286;BME280;4181;43.416;24.598;2023-05-12T08:10:09;100614.84;;;14.44;100.00
8286;BME280;4181;43.416;24.598;2023-05-12T08:12:35;100600.06;;;14.45;100.00
8286;BME280;4181;43.416;24.598;2023-05-12T08:15:01;100598.69;;;14.47;100.00
8286;BME280;4181;43.416;24.598;2023-05-12T08:17:26;100613.75;;;14.40;100.00
8286;BME280;4181;43.416;24.598;2023-05-12T08:19:51;100593.59;;;14.71;100.00
8286;BME280;4181;43.416;24.598;2023-05-12T08:22:17;100596.06;;;14.72;100.00
8286;BME280;4181;43.416;24.598;2023-05-12T08:24:42;100608.63;;;14.53;100.00
8286;BME280;4181;43.416;24.598;2023-05-12T08:27:08;100605.34;;;14.56;100.00
8286;BME280;4181;43.416;24.598;2023-05-12T08:29:33;100598.72;;;14.52;100.00
8286;BME280;4181;43.416;24.598;2023-05-12T08:31:59;100605.16;;;14.73;100.00
8286;BME280;4181;43.416;24.598;2023-05-12T08:34:24;100607.09;;;14.77;100.00
8286;BME280;4181;43.416;24.598;2023-05-12T08:36:53;100588.94;;;14.71;100.00
8286;BME280;4181;43.416;24.598;2023-05-12T08:39:20;100596.63;;;14.74;100.00
8286;BME280;4181;43.416;24.598;2023-05-12T08:44:46;100601.66;;;14.92;100.00
8286;BME280;4181;43.416;24.598;2023-05-12T08:47:13;100603.84;;;14.90;100.00
8286;BME280;4181;43.416;24.598;2023-05-12T08:49:41;100601.38;;;14.89;100.00
8286;BME280;4181;43.416;24.598;2023-05-12T08:52:08;100598.09;;;14.87;100.00
8286;BME280;4181;43.416;24.598;2023-05-12T08:54:36;100606.91;;;14.99;100.00
8286;BME280;4181;43.416;24.598;2023-05-12T08:57:03;100602.53;;;15.03;100.00
8286;BME280;4181;43.416;24.598;2023-05-12T08:59:30;100603.97;;;15.20;100.00
8286;BME280;4181;43.416;24.598;2023-05-12T09:01:57;100598.22;;;15.17;100.00
8286;BME280;4181;43.416;24.598;2023-05-12T09:04:23;100594.94;;;15.25;100.00
8286;BME280;4181;43.416;24.598;2023-05-12T09:06:48;100608.69;;;15.30;100.00
8286;BME280;4181;43.416;24.598;2023-05-12T09:09:16;100592.25;;;15.40;100.00
8286;BME280;4181;43.416;24.598;2023-05-12T09:11:42;100609.53;;;15.41;100.00
8286;BME280;4181;43.416;24.598;2023-05-12T09:14:13;100591.97;;;15.42;100.00
8286;BME280;4181;43.416;24.598;2023-05-12T09:16:43;100605.47;;;15.48;100.00
8286;BME280;4181;43.416;24.598;2023-05-12T09:19:09;100603.25;;;15.50;100.00
8286;BME280;4181;43.416;24.598;2023-05-12T09:21:35;100585.59;;;15.36;100.00
8286;BME280;4181;43.416;24.598;2023-05-12T09:24:05;100599.13;;;15.48;100.00
8286;BME280;4181;43.416;24.598;2023-05-12T09:26:52;100587.31;;;15.57;100.00
8286;BME280;4181;43.416;24.598;2023-05-12T09:29:18;100586.22;;;15.68;100.00
8286;BME280;4181;43.416;24.598;2023-05-12T09:31:53;100576.06;;;15.74;100.00
8286;BME280;4181;43.416;24.598;2023-05-12T09:34:29;100587.88;;;15.69;100.00
8286;BME280;4181;43.416;24.598;2023-05-12T09:36:58;100592.81;;;15.67;100.00
8286;BME280;4181;43.416;24.598;2023-05-12T09:39:25;100590.63;;;15.69;100.00
8286;BME280;4181;43.416;24.598;2023-05-12T09:41:51;100601.34;;;15.66;100.00
8286;BME280;4181;43.416;24.598;2023-05-12T09:44:17;100579.59;;;15.59;100.00
8286;BME280;4181;43.416;24.598;2023-05-12T09:46:43;100584.56;;;15.62;100.00
8286;BME280;4181;43.416;24.598;2023-05-12T09:49:09;100604.09;;;15.66;100.00
8286;BME280;4181;43.416;24.598;2023-05-12T09:51:36;100582.94;;;15.66;100.00
8286;BME280;4181;43.416;24.598;2023-05-12T09:54:02;100586.50;;;15.62;100.00
8286;BME280;4181;43.416;24.598;2023-05-12T09:56:28;100588.16;;;15.68;100.00
8286;BME280;4181;43.416;24.598;2023-05-12T09:58:56;100577.44;;;15.71;100.00
8286;BME280;4181;43.416;24.598;2023-05-12T10:01:22;100573.56;;;15.77;100.00
8286;BME280;4181;43.416;24.598;2023-05-12T10:03:50;100581.56;;;15.84;100.00
8286;BME280;4181;43.416;24.598;2023-05-12T10:06:23;100575.50;;;15.97;100.00
8286;BME280;4181;43.416;24.598;2023-05-12T10:11:28;100569.72;;;16.03;100.00
8286;BME280;4181;43.416;24.598;2023-05-12T10:13:54;100559.25;;;16.15;100.00
8286;BME280;4181;43.416;24.598;2023-05-12T10:16:20;100574.38;;;16.18;100.00
8286;BME280;4181;43.416;24.598;2023-05-12T10:18:47;100574.38;;;16.23;100.00
8286;BME280;4181;43.416;24.598;2023-05-12T10:21:13;100581.25;;;16.30;100.00
8286;BME280;4181;43.416;24.598;2023-05-12T10:23:39;100578.53;;;16.20;100.00
8286;BME280;4181;43.416;24.598;2023-05-12T10:26:10;100580.16;;;16.26;100.00
8286;BME280;4181;43.416;24.598;2023-05-12T10:28:36;100571.06;;;16.31;100.00
8286;BME280;4181;43.416;24.598;2023-05-12T10:31:04;100568.84;;;16.33;100.00
8286;BME280;4181;43.416;24.598;2023-05-12T10:33:32;100582.06;;;16.26;100.00
8286;BME280;4181;43.416;24.598;2023-05-12T10:35:58;100561.16;;;16.35;100.00
8286;BME280;4181;43.416;24.598;2023-05-12T10:38:24;100558.09;;;16.36;100.00
8286;BME280;4181;43.416;24.598;2023-05-12T10:41:00;100570.50;;;16.49;100.00
8286;BME280;4181;43.416;24.598;2023-05-12T10:43:37;100562.78;;;16.46;100.00
8286;BME280;4181;43.416;24.598;2023-05-12T10:46:07;100572.44;;;16.38;100.00
8286;BME280;4181;43.416;24.598;2023-05-12T10:48:33;100559.75;;;16.37;100.00
8286;BME280;4181;43.416;24.598;2023-05-12T10:51:08;100563.06;;;16.34;100.00
8286;BME280;4181;43.416;24.598;2023-05-12T10:53:36;100559.22;;;16.40;100.00
8286;BME280;4181;43.416;24.598;2023-05-12T10:56:04;100564.44;;;16.52;100.00
8286;BME280;4181;43.416;24.598;2023-05-12T10:58:30;100550.38;;;16.43;100.00
8286;BME280;4181;43.416;24.598;2023-05-12T11:01:04;100556.97;;;16.58;100.00
8286;BME280;4181;43.416;24.598;2023-05-12T11:03:30;100561.38;;;16.59;100.00
8286;BME280;4181;43.416;24.598;2023-05-12T11:06:00;100551.72;;;16.61;100.00
8286;BME280;4181;43.416;24.598;2023-05-12T11:08:25;100548.97;;;16.61;100.00
8286;BME280;4181;43.416;24.598;2023-05-12T11:10:52;100547.56;;;16.74;100.00
8286;BME280;4181;43.416;24.598;2023-05-12T11:13:18;100558.03;;;16.77;100.00
8286;BME280;4181;43.416;24.598;2023-05-12T11:15:44;100559.69;;;16.68;100.00
8286;BME280;4181;43.416;24.598;2023-05-12T11:18:09;100561.06;;;16.75;100.00
8286;BME280;4181;43.416;24.598;2023-05-12T11:20:36;100575.75;;;16.51;100.00
8286;BME280;4181;43.416;24.598;2023-05-12T11:23:02;100554.78;;;16.55;100.00
8286;BME280;4181;43.416;24.598;2023-05-12T11:25:28;100549.81;;;16.62;100.00
8286;BME280;4181;43.416;24.598;2023-05-12T11:27:54;100548.66;;;16.68;100.00
8286;BME280;4181;43.416;24.598;2023-05-12T11:30:20;100549.81;;;16.62;100.00
8286;BME280;4181;43.416;24.598;2023-05-12T11:32:45;100556.66;;;16.69;100.00
8286;BME280;4181;43.416;24.598;2023-05-12T11:35:17;100540.38;;;16.78;100.00
8286;BME280;4181;43.416;24.598;2023-05-12T11:37:44;100543.44;;;16.71;100.00
8286;BME280;4181;43.416;24.598;2023-05-12T11:40:13;100542.34;;;16.72;100.00
8286;BME280;4181;43.416;24.598;2023-05-12T11:42:39;100542.53;;;16.86;100.00
8286;BME280;4181;43.416;24.598;2023-05-12T11:45:18;100549.41;;;16.93;100.00
8286;BME280;4181;43.416;24.598;2023-05-12T11:47:44;100561.59;;;16.82;100.00
8286;BME280;4181;43.416;24.598;2023-05-12T11:50:10;100559.09;;;16.81;100.00
8286;BME280;4181;43.416;24.598;2023-05-12T11:52:35;100541.44;;;16.87;100.00
8286;BME280;4181;43.416;24.598;2023-05-12T11:55:00;100549.41;;;16.88;100.00
8286;BME280;4181;43.416;24.598;2023-05-12T11:57:29;100553.75;;;17.04;100.00
8286;BME280;4181;43.416;24.598;2023-05-12T11:59:56;100555.78;;;16.89;100.00
8286;BME280;4181;43.416;24.598;2023-05-12T12:02:22;100547.19;;;16.95;100.00
8286;BME280;4181;43.416;24.598;2023-05-12T12:04:48;100549.69;;;16.92;100.00
8286;BME280;4181;43.416;24.598;2023-05-12T12:07:13;100555.75;;;16.94;100.00
8286;BME280;4181;43.416;24.598;2023-05-12T12:09:40;100560.66;;;17.02;100.00
8286;BME280;4181;43.416;24.598;2023-05-12T12:12:07;100544.13;;;17.02;100.00
8286;BME280;4181;43.416;24.598;2023-05-12T12:14:34;100542.16;;;17.12;100.00
8286;BME280;4181;43.416;24.598;2023-05-12T12:17:00;100543.22;;;17.11;100.00
8286;BME280;4181;43.416;24.598;2023-05-12T12:19:26;100544.09;;;17.07;100.00
8286;BME280;4181;43.416;24.598;2023-05-12T12:21:53;100535.22;;;17.15;100.00
8286;BME280;4181;43.416;24.598;2023-05-12T12:24:18;100524.47;;;17.13;100.00
8286;BME280;4181;43.416;24.598;2023-05-12T12:26:44;100530.75;;;17.24;100.00
8286;BME280;4181;43.416;24.598;2023-05-12T12:29:09;100525.72;;;17.31;100.00
8286;BME280;4181;43.416;24.598;2023-05-12T12:31:35;100527.88;;;17.44;100.00
8286;BME280;4181;43.416;24.598;2023-05-12T12:34:03;100528.09;;;17.52;100.00
8286;BME280;4181;43.416;24.598;2023-05-12T12:36:30;100522.38;;;17.39;100.00
8286;BME280;4181;43.416;24.598;2023-05-12T12:38:56;100515.47;;;17.41;100.00
8286;BME280;4181;43.416;24.598;2023-05-12T12:41:21;100521.19;;;17.55;100.00
8286;BME280;4181;43.416;24.598;2023-05-12T12:43:47;100512.50;;;17.72;100.00
8286;BME280;4181;43.416;24.598;2023-05-12T12:46:12;100512.16;;;17.78;100.00
8286;BME280;4181;43.416;24.598;2023-05-12T12:48:38;100512.69;;;17.80;100.00
8286;BME280;4181;43.416;24.598;2023-05-12T12:51:03;100522.31;;;17.83;100.00